sensor_id;sensor_type;location;lat;lon;timestamp;P1;durP1;ratioP1;P2;durP2;ratioP2
59145;SDS011;44928;53.074;6.646;2023-06-10T00:00:42;11.13;;;4.10;;
59145;SDS011;44928;53.074;6.646;2023-06-10T00:03:08;8.60;;;3.67;;
59145;SDS011;44928;53.074;6.646;2023-06-10T00:05:34;12.00;;;4.18;;
59145;SDS011;44928;53.074;6.646;2023-06-10T00:08:01;9.77;;;4.03;;
59145;SDS011;44928;53.074;6.646;2023-06-10T00:10:32;12.38;;;4.40;;
59145;SDS011;44928;53.074;6.646;2023-06-10T00:13:00;9.90;;;4.05;;
59145;SDS011;44928;53.074;6.646;2023-06-10T00:15:27;10.65;;;3.92;;
59145;SDS011;44928;53.074;6.646;2023-06-10T00:17:53;10.88;;;4.00;;
59145;SDS011;44928;53.074;6.646;2023-06-10T00:20:20;10.82;;;4.47;;
59145;SDS011;44928;53.074;6.646;2023-06-10T00:22:46;11.75;;;4.25;;
59145;SDS011;44928;53.074;6.646;2023-06-10T00:25:14;9.13;;;4.07;;
59145;SDS011;44928;53.074;6.646;2023-06-10T00:27:40;9.93;;;3.92;;
59145;SDS011;44928;53.074;6.646;2023-06-10T00:30:06;10.40;;;4.47;;
59145;SDS011;44928;53.074;6.646;2023-06-10T00:32:35;13.82;;;4.43;;
59145;SDS011;44928;53.074;6.646;2023-06-10T00:35:02;7.82;;;3.53;;
59145;SDS011;44928;53.074;6.646;2023-06-10T00:37:28;10.07;;;3.95;;
59145;SDS011;44928;53.074;6.646;2023-06-10T00:39:55;10.25;;;3.95;;
59145;SDS011;44928;53.074;6.646;2023-06-10T00:42:21;9.90;;;3.90;;
59145;SDS011;44928;53.074;6.646;2023-06-10T00:44:49;9.00;;;3.95;;
59145;SDS011;44928;53.074;6.646;2023-06-10T00:47:16;9.85;;;4.05;;
59145;SDS011;44928;53.074;6.646;2023-06-10T00:49:42;9.60;;;3.75;;
59145;SDS011;44928;53.074;6.646;2023-06-10T00:52:08;9.65;;;4.50;;
59145;SDS011;44928;53.074;6.646;2023-06-10T00:54:35;10.27;;;4.20;;
59145;SDS011;44928;53.074;6.646;2023-06-10T00:57:02;10.07;;;4.18;;
59145;SDS011;44928;53.074;6.646;2023-06-10T00:59:29;10.02;;;4.20;;
59145;SDS011;44928;53.074;6.646;2023-06-10T01:01:56;11.63;;;4.40;;
59145;SDS011;44928;53.074;6.646;2023-06-10T01:04:22;10.23;;;4.35;;
59145;SDS011;44928;53.074;6.646;2023-06-10T01:14:44;13.38;;;4.20;;
59145;SDS011;44928;53.074;6.646;2023-06-10T01:17:11;10.20;;;4.53;;
59145;SDS011;44928;53.074;6.646;2023-06-10T01:19:37;9.15;;;4.03;;
59145;SDS011;44928;53.074;6.646;2023-06-10T01:22:03;10.35;;;3.83;;
59145;SDS011;44928;53.074;6.646;2023-06-10T01:24:30;9.95;;;4.20;;
59145;SDS011;44928;53.074;6.646;2023-06-10T01:26:59;10.07;;;4.32;;
59145;SDS011;44928;53.074;6.646;2023-06-10T01:29:33;9.65;;;4.05;;
59145;SDS011;44928;53.074;6.646;2023-06-10T01:32:12;10.20;;;4.05;;
59145;SDS011;44928;53.074;6.646;2023-06-10T01:34:46;8.85;;;4.22;;
59145;SDS011;44928;53.074;6.646;2023-06-10T01:37:15;14.25;;;5.00;;
59145;SDS011;44928;53.074;6.646;2023-06-10T01:39:43;10.65;;;4.60;;
59145;SDS011;44928;53.074;6.646;2023-06-10T01:42:12;9.45;;;4.38;;
59145;SDS011;44928;53.074;6.646;2023-06-10T01:44:41;9.05;;;4.00;;
59145;SDS011;44928;53.074;6.646;2023-06-10T01:47:07;15.63;;;4.63;;
59145;SDS011;44928;53.074;6.646;2023-06-10T01:49:34;9.23;;;4.35;;
59145;SDS011;44928;53.074;6.646;2023-06-10T01:52:00;9.65;;;4.18;;
59145;SDS011;44928;53.074;6.646;2023-06-10T01:54:25;8.73;;;4.00;;
59145;SDS011;44928;53.074;6.646;2023-06-10T01:56:51;9.85;;;4.18;;
59145;SDS011;44928;53.074;6.646;2023-06-10T01:59:17;10.98;;;4.43;;
59145;SDS011;44928;53.074;6.646;2023-06-10T02:01:43;9.68;;;3.97;;
59145;SDS011;44928;53.074;6.646;2023-06-10T02:04:08;9.90;;;3.97;;
59145;SDS011;44928;53.074;6.646;2023-06-10T02:06:34;10.65;;;4.20;;
59145;SDS011;44928;53.074;6.646;2023-06-10T02:09:00;11.52;;;4.05;;
59145;SDS011;44928;53.074;6.646;2023-06-10T02:11:26;10.52;;;4.20;;
59145;SDS011;44928;53.074;6.646;2023-06-10T02:13:52;12.32;;;4.45;;
59145;SDS011;44928;53.074;6.646;2023-06-10T02:16:18;10.23;;;4.30;;
59145;SDS011;44928;53.074;6.646;2023-06-10T02:18:43;12.73;;;4.60;;
59145;SDS011;44928;53.074;6.646;2023-06-10T02:21:09;9.90;;;4.43;;
59145;SDS011;44928;53.074;6.646;2023-06-10T02:23:35;10.13;;;4.20;;
59145;SDS011;44928;53.074;6.646;2023-06-10T02:26:01;12.45;;;4.40;;
59145;SDS011;44928;53.074;6.646;2023-06-10T02:28:27;11.82;;;4.72;;
59145;SDS011;44928;53.074;6.646;2023-06-10T02:30:53;13.18;;;4.68;;
59145;SDS011;44928;53.074;6.646;2023-06-10T02:33:19;10.43;;;4.68;;
59145;SDS011;44928;53.074;6.646;2023-06-10T02:35:45;10.57;;;4.35;;
59145;SDS011;44928;53.074;6.646;2023-06-10T02:38:10;10.77;;;4.32;;
59145;SDS011;44928;53.074;6.646;2023-06-10T02:40:36;11.30;;;4.38;;
59145;SDS011;44928;53.074;6.646;2023-06-10T02:43:02;10.65;;;4.03;;
59145;SDS011;44928;53.074;6.646;2023-06-10T02:45:28;10.40;;;4.07;;
59145;SDS011;44928;53.074;6.646;2023-06-10T02:47:54;12.18;;;4.65;;
59145;SDS011;44928;53.074;6.646;2023-06-10T02:50:20;9.75;;;4.40;;
59145;SDS011;44928;53.074;6.646;2023-06-10T02:52:45;11.00;;;4.25;;
59145;SDS011;44928;53.074;6.646;2023-06-10T02:55:11;10.60;;;4.25;;
59145;SDS011;44928;53.074;6.646;2023-06-10T02:57:37;10.00;;;4.20;;
59145;SDS011;44928;53.074;6.646;2023-06-10T03:00:02;9.85;;;4.18;;
59145;SDS011;44928;53.074;6.646;2023-06-10T03:02:34;12.20;;;4.78;;
59145;SDS011;44928;53.074;6.646;2023-06-10T03:05:02;10.68;;;4.60;;
59145;SDS011;44928;53.074;6.646;2023-06-10T03:07:28;10.38;;;4.45;;
59145;SDS011;44928;53.074;6.646;2023-06-10T03:09:53;10.68;;;4.88;;
59145;SDS011;44928;53.074;6.646;2023-06-10T03:12:19;10.63;;;4.20;;
59145;SDS011;44928;53.074;6.646;2023-06-10T03:14:45;10.70;;;4.70;;
59145;SDS011;44928;53.074;6.646;2023-06-10T03:17:10;9.35;;;4.20;;
59145;SDS011;44928;53.074;6.646;2023-06-10T03:19:36;9.88;;;4.20;;
59145;SDS011;44928;53.074;6.646;2023-06-10T03:22:12;10.85;;;4.32;;
59145;SDS011;44928;53.074;6.646;2023-06-10T03:24:39;11.02;;;4.60;;
59145;SDS011;44928;53.074;6.646;2023-06-10T03:27:08;12.00;;;4.55;;
59145;SDS011;44928;53.074;6.646;2023-06-10T03:29:39;20.38;;;4.85;;
59145;SDS011;44928;53.074;6.646;2023-06-10T03:32:05;14.80;;;4.45;;
59145;SDS011;44928;53.074;6.646;2023-06-10T03:34:31;11.57;;;4.63;;
59145;SDS011;44928;53.074;6.646;2023-06-10T03:36:57;12.48;;;4.90;;
59145;SDS011;44928;53.074;6.646;2023-06-10T03:39:23;12.50;;;4.70;;
59145;SDS011;44928;53.074;6.646;2023-06-10T03:41:49;12.70;;;4.65;;
59145;SDS011;44928;53.074;6.646;2023-06-10T03:44:15;12.07;;;4.80;;
59145;SDS011;44928;53.074;6.646;2023-06-10T03:46:41;11.18;;;4.63;;
59145;SDS011;44928;53.074;6.646;2023-06-10T03:49:07;11.40;;;4.65;;
59145;SDS011;44928;53.074;6.646;2023-06-10T03:51:35;11.35;;;4.43;;
59145;SDS011;44928;53.074;6.646;2023-06-10T03:54:01;12.40;;;4.53;;
59145;SDS011;44928;53.074;6.646;2023-06-10T03:56:27;13.30;;;4.57;;
59145;SDS011;44928;53.074;6.646;2023-06-10T03:58:53;12.30;;;4.90;;
59145;SDS011;44928;53.074;6.646;2023-06-10T04:01:20;10.93;;;4.63;;
59145;SDS011;44928;53.074;6.646;2023-06-10T04:03:46;12.95;;;4.47;;
59145;SDS011;44928;53.074;6.646;2023-06-10T04:06:14;11.80;;;4.32;;
59145;SDS011;44928;53.074;6.646;2023-06-10T04:08:40;11.15;;;4.80;;
59145;SDS011;44928;53.074;6.646;2023-06-10T04:11:06;13.85;;;5.22;;
59145;SDS011;44928;53.074;6.646;2023-06-10T04:13:32;9.82;;;3.88;;
59145;SDS011;44928;53.074;6.646;2023-06-10T04:15:57;10.32;;;5.03;;
59145;SDS011;44928;53.074;6.646;2023-06-10T04:18:23;9.80;;;4.38;;
59145;SDS011;44928;53.074;6.646;2023-06-10T04:20:49;11.93;;;4.60;;
59145;SDS011;44928;53.074;6.646;2023-06-10T04:23:15;10.68;;;4.25;;
59145;SDS011;44928;53.074;6.646;2023-06-10T04:25:40;12.32;;;5.20;;
59145;SDS011;44928;53.074;6.646;2023-06-10T04:28:06;14.10;;;5.03;;
59145;SDS011;44928;53.074;6.646;2023-06-10T04:30:32;13.30;;;5.53;;
59145;SDS011;44928;53.074;6.646;2023-06-10T04:32:58;12.85;;;4.63;;
59145;SDS011;44928;53.074;6.646;2023-06-10T04:35:24;13.25;;;5.28;;
59145;SDS011;44928;53.074;6.646;2023-06-10T04:37:53;12.27;;;5.18;;
59145;SDS011;44928;53.074;6.646;2023-06-10T04:40:19;11.57;;;5.20;;
59145;SDS011;44928;53.074;6.646;2023-06-10T04:42:45;12.88;;;5.43;;
59145;SDS011;44928;53.074;6.646;2023-06-10T04:45:11;13.48;;;4.93;;
59145;SDS011;44928;53.074;6.646;2023-06-10T04:47:36;10.35;;;4.93;;
59145;SDS011;44928;53.074;6.646;2023-06-10T04:50:03;12.95;;;5.10;;
59145;SDS011;44928;53.074;6.646;2023-06-10T04:52:29;12.65;;;5.18;;
59145;SDS011;44928;53.074;6.646;2023-06-10T04:54:56;12.63;;;4.93;;
59145;SDS011;44928;53.074;6.646;2023-06-10T04:57:23;15.55;;;5.75;;
59145;SDS011;44928;53.074;6.646;2023-06-10T04:59:49;13.30;;;5.50;;
59145;SDS011;44928;53.074;6.646;2023-06-10T05:02:14;12.88;;;5.97;;
59145;SDS011;44928;53.074;6.646;2023-06-10T05:04:40;11.50;;;5.35;;
59145;SDS011;44928;53.074;6.646;2023-06-10T05:07:06;13.18;;;4.72;;
59145;SDS011;44928;53.074;6.646;2023-06-10T05:09:32;12.95;;;5.38;;
59145;SDS011;44928;53.074;6.646;2023-06-10T05:11:58;15.13;;;5.07;;
59145;SDS011;44928;53.074;6.646;2023-06-10T05:14:24;12.43;;;5.60;;
59145;SDS011;44928;53.074;6.646;2023-06-10T05:16:49;14.88;;;5.63;;
59145;SDS011;44928;53.074;6.646;2023-06-10T05:19:15;13.05;;;5.70;;
59145;SDS011;44928;53.074;6.646;2023-06-10T05:21:41;11.32;;;5.13;;
59145;SDS011;44928;53.074;6.646;2023-06-10T05:24:07;12.40;;;5.53;;
59145;SDS011;44928;53.074;6.646;2023-06-10T05:26:33;12.77;;;5.03;;
59145;SDS011;44928;53.074;6.646;2023-06-10T05:29:04;12.50;;;5.25;;
59145;SDS011;44928;53.074;6.646;2023-06-10T05:31:30;13.05;;;4.97;;
59145;SDS011;44928;53.074;6.646;2023-06-10T05:33:56;11.23;;;5.32;;
59145;SDS011;44928;53.074;6.646;2023-06-10T05:36:22;11.18;;;5.70;;
59145;SDS011;44928;53.074;6.646;2023-06-10T05:38:50;12.85;;;5.32;;
59145;SDS011;44928;53.074;6.646;2023-06-10T05:41:16;14.13;;;5.43;;
59145;SDS011;44928;53.074;6.646;2023-06-10T05:43:41;13.25;;;5.60;;
59145;SDS011;44928;53.074;6.646;2023-06-10T05:46:07;12.70;;;5.28;;
59145;SDS011;44928;53.074;6.646;2023-06-10T05:48:33;13.05;;;5.35;;
59145;SDS011;44928;53.074;6.646;2023-06-10T05:50:59;12.45;;;5.28;;
59145;SDS011;44928;53.074;6.646;2023-06-10T05:53:24;14.30;;;5.25;;
59145;SDS011;44928;53.074;6.646;2023-06-10T05:55:50;13.20;;;5.25;;
59145;SDS011;44928;53.074;6.646;2023-06-10T05:58:17;15.07;;;5.40;;
59145;SDS011;44928;53.074;6.646;2023-06-10T06:00:43;14.15;;;5.40;;
59145;SDS011;44928;53.074;6.646;2023-06-10T06:03:09;12.55;;;5.40;;
59145;SDS011;44928;53.074;6.646;2023-06-10T06:05:35;11.50;;;5.30;;
59145;SDS011;44928;53.074;6.646;2023-06-10T06:08:03;13.20;;;5.47;;
59145;SDS011;44928;53.074;6.646;2023-06-10T06:10:34;13.35;;;5.20;;
59145;SDS011;44928;53.074;6.646;2023-06-10T06:13:00;12.90;;;5.53;;
59145;SDS011;44928;53.074;6.646;2023-06-10T06:15:26;11.90;;;5.13;;
59145;SDS011;44928;53.074;6.646;2023-06-10T06:17:52;14.27;;;6.00;;
59145;SDS011;44928;53.074;6.646;2023-06-10T06:20:19;12.73;;;5.82;;
59145;SDS011;44928;53.074;6.646;2023-06-10T06:22:45;14.63;;;5.68;;
59145;SDS011;44928;53.074;6.646;2023-06-10T06:25:11;13.88;;;5.53;;
59145;SDS011;44928;53.074;6.646;2023-06-10T06:27:37;13.05;;;5.60;;
59145;SDS011;44928;53.074;6.646;2023-06-10T06:30:02;18.73;;;6.65;;
59145;SDS011;44928;53.074;6.646;2023-06-10T06:32:29;13.85;;;6.20;;
59145;SDS011;44928;53.074;6.646;2023-06-10T06:34:55;12.70;;;5.32;;
59145;SDS011;44928;53.074;6.646;2023-06-10T06:37:24;15.88;;;6.00;;
59145;SDS011;44928;53.074;6.646;2023-06-10T06:39:50;11.90;;;5.30;;
59145;SDS011;44928;53.074;6.646;2023-06-10T06:42:17;14.57;;;5.72;;
59145;SDS011;44928;53.074;6.646;2023-06-10T06:44:43;14.85;;;5.15;;
59145;SDS011;44928;53.074;6.646;2023-06-10T06:47:09;12.60;;;5.30;;
59145;SDS011;44928;53.074;6.646;2023-06-10T06:49:34;13.43;;;5.82;;
59145;SDS011;44928;53.074;6.646;2023-06-10T06:52:01;12.85;;;5.07;;
59145;SDS011;44928;53.074;6.646;2023-06-10T06:54:27;13.55;;;5.00;;
59145;SDS011;44928;53.074;6.646;2023-06-10T06:56:52;12.80;;;4.90;;
59145;SDS011;44928;53.074;6.646;2023-06-10T06:59:18;14.75;;;5.80;;
59145;SDS011;44928;53.074;6.646;2023-06-10T07:01:44;11.82;;;4.65;;
59145;SDS011;44928;53.074;6.646;2023-06-10T07:04:11;12.88;;;4.88;;
59145;SDS011;44928;53.074;6.646;2023-06-10T07:06:37;13.15;;;5.45;;
59145;SDS011;44928;53.074;6.646;2023-06-10T07:09:07;14.13;;;4.95;;
59145;SDS011;44928;53.074;6.646;2023-06-10T07:11:36;12.32;;;4.97;;
59145;SDS011;44928;53.074;6.646;2023-06-10T07:14:02;11.60;;;4.78;;
59145;SDS011;44928;53.074;6.646;2023-06-10T07:16:28;11.13;;;4.97;;
59145;SDS011;44928;53.074;6.646;2023-06-10T07:18:53;11.80;;;4.60;;
59145;SDS011;44928;53.074;6.646;2023-06-10T07:21:19;13.10;;;6.00;;
59145;SDS011;44928;53.074;6.646;2023-06-10T07:23:45;12.80;;;4.63;;
59145;SDS011;44928;53.074;6.646;2023-06-10T07:26:11;12.18;;;5.10;;
59145;SDS011;44928;53.074;6.646;2023-06-10T07:28:41;10.80;;;4.45;;
59145;SDS011;44928;53.074;6.646;2023-06-10T07:31:07;11.30;;;4.88;;
59145;SDS011;44928;53.074;6.646;2023-06-10T07:33:33;12.60;;;4.88;;
59145;SDS011;44928;53.074;6.646;2023-06-10T07:35:59;12.95;;;5.50;;
59145;SDS011;44928;53.074;6.646;2023-06-10T07:38:25;12.32;;;4.55;;
59145;SDS011;44928;53.074;6.646;2023-06-10T07:40:51;11.27;;;4.82;;
59145;SDS011;44928;53.074;6.646;2023-06-10T07:43:18;12.15;;;5.30;;
59145;SDS011;44928;53.074;6.646;2023-06-10T07:45:44;12.35;;;4.78;;
59145;SDS011;44928;53.074;6.646;2023-06-10T07:48:10;13.90;;;4.60;;
59145;SDS011;44928;53.074;6.646;2023-06-10T07:50:35;13.35;;;4.65;;
59145;SDS011;44928;53.074;6.646;2023-06-10T07:53:01;12.75;;;4.57;;
59145;SDS011;44928;53.074;6.646;2023-06-10T07:55:28;15.02;;;4.72;;
59145;SDS011;44928;53.074;6.646;2023-06-10T07:57:54;11.32;;;4.00;;
59145;SDS011;44928;53.074;6.646;2023-06-10T08:00:20;11.70;;;4.60;;
59145;SDS011;44928;53.074;6.646;2023-06-10T08:02:46;12.23;;;4.30;;
59145;SDS011;44928;53.074;6.646;2023-06-10T08:05:12;11.65;;;5.32;;
59145;SDS011;44928;53.074;6.646;2023-06-10T08:07:41;13.07;;;4.93;;
59145;SDS011;44928;53.074;6.646;2023-06-10T08:10:08;13.48;;;4.47;;
59145;SDS011;44928;53.074;6.646;2023-06-10T08:12:34;11.73;;;4.60;;
59145;SDS011;44928;53.074;6.646;2023-06-10T08:15:00;9.45;;;4.55;;
59145;SDS011;44928;53.074;6.646;2023-06-10T08:17:29;9.88;;;4.28;;
59145;SDS011;44928;53.074;6.646;2023-06-10T08:19:57;13.50;;;4.50;;
59145;SDS011;44928;53.074;6.646;2023-06-10T08:22:23;10.13;;;4.35;;
59145;SDS011;44928;53.074;6.646;2023-06-10T08:24:49;9.52;;;4.03;;
59145;SDS011;44928;53.074;6.646;2023-06-10T08:27:15;12.52;;;4.70;;
59145;SDS011;44928;53.074;6.646;2023-06-10T08:29:40;13.45;;;4.25;;
59145;SDS011;44928;53.074;6.646;2023-06-10T08:32:06;10.85;;;4.28;;
59145;SDS011;44928;53.074;6.646;2023-06-10T08:34:35;11.13;;;3.97;;
59145;SDS011;44928;53.074;6.646;2023-06-10T08:37:01;9.38;;;3.95;;
59145;SDS011;44928;53.074;6.646;2023-06-10T08:39:30;9.90;;;3.63;;
59145;SDS011;44928;53.074;6.646;2023-06-10T08:44:46;10.80;;;4.78;;
59145;SDS011;44928;53.074;6.646;2023-06-10T08:49:42;10.93;;;4.25;;
59145;SDS011;44928;53.074;6.646;2023-06-10T08:52:11;13.07;;;4.20;;
59145;SDS011;44928;53.074;6.646;2023-06-10T08:54:40;9.35;;;3.70;;
59145;SDS011;44928;53.074;6.646;2023-06-10T08:57:28;13.05;;;4.10;;
59145;SDS011;44928;53.074;6.646;2023-06-10T08:59:56;12.07;;;3.83;;
59145;SDS011;44928;53.074;6.646;2023-06-10T09:02:23;9.30;;;3.70;;
59145;SDS011;44928;53.074;6.646;2023-06-10T09:04:50;10.80;;;4.18;;
59145;SDS011;44928;53.074;6.646;2023-06-10T09:07:17;11.82;;;4.32;;
59145;SDS011;44928;53.074;6.646;2023-06-10T09:09:43;10.95;;;3.50;;
59145;SDS011;44928;53.074;6.646;2023-06-10T09:12:10;8.80;;;3.25;;
59145;SDS011;44928;53.074;6.646;2023-06-10T09:14:38;13.82;;;3.83;;
59145;SDS011;44928;53.074;6.646;2023-06-10T09:17:05;14.30;;;3.70;;
59145;SDS011;44928;53.074;6.646;2023-06-10T09:19:31;13.23;;;3.83;;
59145;SDS011;44928;53.074;6.646;2023-06-10T09:21:57;11.10;;;3.97;;
59145;SDS011;44928;53.074;6.646;2023-06-10T09:24:23;10.52;;;3.78;;
59145;SDS011;44928;53.074;6.646;2023-06-10T09:26:50;9.20;;;3.50;;
59145;SDS011;44928;53.074;6.646;2023-06-10T09:29:27;11.52;;;4.25;;
59145;SDS011;44928;53.074;6.646;2023-06-10T09:31:53;10.20;;;3.80;;
59145;SDS011;44928;53.074;6.646;2023-06-10T09:34:19;7.22;;;3.10;;
59145;SDS011;44928;53.074;6.646;2023-06-10T09:39:16;9.40;;;3.13;;
59145;SDS011;44928;53.074;6.646;2023-06-10T09:41:44;10.07;;;3.60;;
59145;SDS011;44928;53.074;6.646;2023-06-10T09:46:46;11.30;;;3.40;;
59145;SDS011;44928;53.074;6.646;2023-06-10T09:49:16;10.13;;;3.88;;
59145;SDS011;44928;53.074;6.646;2023-06-10T09:51:54;8.68;;;3.70;;
59145;SDS011;44928;53.074;6.646;2023-06-10T09:54:20;12.52;;;3.53;;
59145;SDS011;44928;53.074;6.646;2023-06-10T09:56:51;8.98;;;3.35;;
59145;SDS011;44928;53.074;6.646;2023-06-10T10:01:57;12.25;;;3.67;;
59145;SDS011;44928;53.074;6.646;2023-06-10T10:04:23;10.13;;;3.60;;
59145;SDS011;44928;53.074;6.646;2023-06-10T10:06:50;20.05;;;3.83;;
59145;SDS011;44928;53.074;6.646;2023-06-10T10:09:16;8.10;;;3.10;;
59145;SDS011;44928;53.074;6.646;2023-06-10T10:11:42;7.75;;;2.70;;
59145;SDS011;44928;53.074;6.646;2023-06-10T10:14:09;23.80;;;4.60;;
59145;SDS011;44928;53.074;6.646;2023-06-10T10:16:37;18.00;;;4.28;;
59145;SDS011;44928;53.074;6.646;2023-06-10T10:19:23;11.70;;;3.15;;
59145;SDS011;44928;53.074;6.646;2023-06-10T10:21:54;45.40;;;6.35;;
59145;SDS011;44928;53.074;6.646;2023-06-10T10:24:33;16.13;;;3.97;;
59145;SDS011;44928;53.074;6.646;2023-06-10T10:27:01;47.17;;;6.30;;
59145;SDS011;44928;53.074;6.646;2023-06-10T10:29:38;11.25;;;3.10;;
59145;SDS011;44928;53.074;6.646;2023-06-10T10:32:05;13.40;;;3.90;;
59145;SDS011;44928;53.074;6.646;2023-06-10T10:35:07;9.90;;;3.35;;
59145;SDS011;44928;53.074;6.646;2023-06-10T10:37:33;11.57;;;3.22;;
59145;SDS011;44928;53.074;6.646;2023-06-10T10:40:01;7.35;;;2.95;;
59145;SDS011;44928;53.074;6.646;2023-06-10T10:42:29;13.95;;;3.55;;
59145;SDS011;44928;53.074;6.646;2023-06-10T10:44:55;9.32;;;2.90;;
59145;SDS011;44928;53.074;6.646;2023-06-10T10:47:22;7.07;;;2.72;;
59145;SDS011;44928;53.074;6.646;2023-06-10T10:49:51;11.52;;;3.28;;
59145;SDS011;44928;53.074;6.646;2023-06-10T10:52:18;11.35;;;3.15;;
59145;SDS011;44928;53.074;6.646;2023-06-10T10:54:45;6.80;;;2.55;;
59145;SDS011;44928;53.074;6.646;2023-06-10T10:57:15;6.80;;;2.30;;
59145;SDS011;44928;53.074;6.646;2023-06-10T10:59:59;8.25;;;2.85;;
59145;SDS011;44928;53.074;6.646;2023-06-10T11:04:58;10.02;;;3.40;;
59145;SDS011;44928;53.074;6.646;2023-06-10T11:07:25;8.60;;;2.70;;
59145;SDS011;44928;53.074;6.646;2023-06-10T11:10:28;11.40;;;2.95;;
59145;SDS011;44928;53.074;6.646;2023-06-10T11:12:53;10.40;;;2.63;;
59145;SDS011;44928;53.074;6.646;2023-06-10T11:15:26;9.00;;;2.92;;
59145;SDS011;44928;53.074;6.646;2023-06-10T11:18:13;10.80;;;2.85;;
59145;SDS011;44928;53.074;6.646;2023-06-10T11:28:41;7.78;;;2.70;;
59145;SDS011;44928;53.074;6.646;2023-06-10T11:31:33;7.15;;;2.60;;
59145;SDS011;44928;53.074;6.646;2023-06-10T11:34:04;8.57;;;3.30;;
59145;SDS011;44928;53.074;6.646;2023-06-10T11:36:32;6.85;;;2.50;;
59145;SDS011;44928;53.074;6.646;2023-06-10T11:38:59;8.02;;;2.63;;
59145;SDS011;44928;53.074;6.646;2023-06-10T11:41:27;10.82;;;2.50;;
59145;SDS011;44928;53.074;6.646;2023-06-10T11:43:54;8.85;;;2.63;;
59145;SDS011;44928;53.074;6.646;2023-06-10T11:46:23;8.90;;;2.93;;
59145;SDS011;44928;53.074;6.646;2023-06-10T11:48:57;7.72;;;2.50;;
59145;SDS011;44928;53.074;6.646;2023-06-10T11:51:27;7.78;;;2.70;;
59145;SDS011;44928;53.074;6.646;2023-06-10T11:53:55;8.63;;;3.08;;
59145;SDS011;44928;53.074;6.646;2023-06-10T11:56:28;10.40;;;2.78;;
59145;SDS011;44928;53.074;6.646;2023-06-10T11:58:57;9.43;;;3.03;;
59145;SDS011;44928;53.074;6.646;2023-06-10T12:01:29;7.57;;;2.53;;
59145;SDS011;44928;53.074;6.646;2023-06-10T12:04:02;8.50;;;2.83;;
59145;SDS011;44928;53.074;6.646;2023-06-10T12:09:05;8.98;;;2.80;;
59145;SDS011;44928;53.074;6.646;2023-06-10T12:11:32;9.05;;;2.50;;
59145;SDS011;44928;53.074;6.646;2023-06-10T12:13:58;17.58;;;3.10;;
59145;SDS011;44928;53.074;6.646;2023-06-10T12:16:24;9.27;;;3.10;;
59145;SDS011;44928;53.074;6.646;2023-06-10T12:18:50;11.43;;;3.25;;
59145;SDS011;44928;53.074;6.646;2023-06-10T12:21:18;9.02;;;2.60;;
59145;SDS011;44928;53.074;6.646;2023-06-10T12:24:07;7.60;;;2.75;;
59145;SDS011;44928;53.074;6.646;2023-06-10T12:29:25;8.75;;;3.00;;
59145;SDS011;44928;53.074;6.646;2023-06-10T12:34:32;10.23;;;3.10;;
59145;SDS011;44928;53.074;6.646;2023-06-10T12:37:04;8.35;;;2.80;;
59145;SDS011;44928;53.074;6.646;2023-06-10T12:39:38;9.85;;;3.05;;
59145;SDS011;44928;53.074;6.646;2023-06-10T12:42:04;9.55;;;3.22;;
59145;SDS011;44928;53.074;6.646;2023-06-10T12:44:34;7.77;;;2.70;;
59145;SDS011;44928;53.074;6.646;2023-06-10T12:47:06;6.88;;;2.83;;
59145;SDS011;44928;53.074;6.646;2023-06-10T12:49:37;8.20;;;2.95;;
59145;SDS011;44928;53.074;6.646;2023-06-10T12:52:04;13.15;;;3.78;;
59145;SDS011;44928;53.074;6.646;2023-06-10T12:54:30;8.70;;;3.08;;
59145;SDS011;44928;53.074;6.646;2023-06-10T12:56:56;6.78;;;2.60;;
59145;SDS011;44928;53.074;6.646;2023-06-10T12:59:22;7.43;;;2.95;;
59145;SDS011;44928;53.074;6.646;2023-06-10T13:01:52;10.23;;;3.00;;
59145;SDS011;44928;53.074;6.646;2023-06-10T13:04:19;7.45;;;2.55;;
59145;SDS011;44928;53.074;6.646;2023-06-10T13:06:45;10.32;;;3.30;;
59145;SDS011;44928;53.074;6.646;2023-06-10T13:09:12;8.20;;;3.03;;
59145;SDS011;44928;53.074;6.646;2023-06-10T13:11:38;9.13;;;3.45;;
59145;SDS011;44928;53.074;6.646;2023-06-10T13:14:05;8.38;;;3.30;;
59145;SDS011;44928;53.074;6.646;2023-06-10T13:16:31;13.18;;;4.00;;
59145;SDS011;44928;53.074;6.646;2023-06-10T13:18:57;44.53;;;7.50;;
59145;SDS011;44928;53.074;6.646;2023-06-10T13:21:24;16.83;;;3.38;;
59145;SDS011;44928;53.074;6.646;2023-06-10T13:23:50;8.75;;;3.08;;
59145;SDS011;44928;53.074;6.646;2023-06-10T13:26:16;12.15;;;3.15;;
59145;SDS011;44928;53.074;6.646;2023-06-10T13:28:43;16.23;;;3.72;;
59145;SDS011;44928;53.074;6.646;2023-06-10T13:31:09;9.82;;;3.00;;
59145;SDS011;44928;53.074;6.646;2023-06-10T13:33:35;12.40;;;3.40;;
59145;SDS011;44928;53.074;6.646;2023-06-10T13:36:00;12.18;;;3.45;;
59145;SDS011;44928;53.074;6.646;2023-06-10T13:38:26;18.65;;;4.03;;
59145;SDS011;44928;53.074;6.646;2023-06-10T13:40:52;12.60;;;3.70;;
59145;SDS011;44928;53.074;6.646;2023-06-10T13:43:17;6.72;;;2.67;;
59145;SDS011;44928;53.074;6.646;2023-06-10T13:45:43;9.55;;;2.95;;
59145;SDS011;44928;53.074;6.646;2023-06-10T13:48:10;17.00;;;4.10;;
59145;SDS011;44928;53.074;6.646;2023-06-10T13:50:37;11.23;;;2.90;;
59145;SDS011;44928;53.074;6.646;2023-06-10T13:53:02;10.38;;;3.00;;
59145;SDS011;44928;53.074;6.646;2023-06-10T13:55:28;12.50;;;3.55;;
59145;SDS011;44928;53.074;6.646;2023-06-10T13:57:54;8.20;;;3.05;;
59145;SDS011;44928;53.074;6.646;2023-06-10T14:00:20;9.45;;;2.80;;
59145;SDS011;44928;53.074;6.646;2023-06-10T14:02:46;9.93;;;3.00;;
59145;SDS011;44928;53.074;6.646;2023-06-10T14:05:12;8.93;;;2.70;;
59145;SDS011;44928;53.074;6.646;2023-06-10T14:07:37;11.43;;;3.20;;
59145;SDS011;44928;53.074;6.646;2023-06-10T14:10:05;7.93;;;3.05;;
59145;SDS011;44928;53.074;6.646;2023-06-10T14:12:31;8.45;;;2.80;;
59145;SDS011;44928;53.074;6.646;2023-06-10T14:14:56;8.07;;;2.85;;
59145;SDS011;44928;53.074;6.646;2023-06-10T14:17:22;7.88;;;2.70;;
59145;SDS011;44928;53.074;6.646;2023-06-10T14:19:48;11.77;;;3.22;;
59145;SDS011;44928;53.074;6.646;2023-06-10T14:22:14;9.90;;;3.03;;
59145;SDS011;44928;53.074;6.646;2023-06-10T14:24:40;9.10;;;2.50;;
59145;SDS011;44928;53.074;6.646;2023-06-10T14:27:06;7.20;;;2.75;;
59145;SDS011;44928;53.074;6.646;2023-06-10T14:29:32;9.98;;;2.88;;
59145;SDS011;44928;53.074;6.646;2023-06-10T14:31:59;9.35;;;2.13;;
59145;SDS011;44928;53.074;6.646;2023-06-10T14:34:25;6.90;;;2.50;;
59145;SDS011;44928;53.074;6.646;2023-06-10T14:36:54;10.88;;;2.60;;
59145;SDS011;44928;53.074;6.646;2023-06-10T14:39:20;9.10;;;2.55;;
59145;SDS011;44928;53.074;6.646;2023-06-10T14:41:46;6.15;;;2.42;;
59145;SDS011;44928;53.074;6.646;2023-06-10T14:44:11;7.10;;;2.45;;
59145;SDS011;44928;53.074;6.646;2023-06-10T14:46:37;5.65;;;2.30;;
59145;SDS011;44928;53.074;6.646;2023-06-10T14:49:03;7.20;;;2.60;;
59145;SDS011;44928;53.074;6.646;2023-06-10T14:51:29;7.72;;;2.08;;
59145;SDS011;44928;53.074;6.646;2023-06-10T14:53:54;7.93;;;2.47;;
59145;SDS011;44928;53.074;6.646;2023-06-10T14:56:20;7.97;;;2.35;;
59145;SDS011;44928;53.074;6.646;2023-06-10T14:58:46;12.10;;;4.85;;
59145;SDS011;44928;53.074;6.646;2023-06-10T15:01:11;10.73;;;3.35;;
59145;SDS011;44928;53.074;6.646;2023-06-10T15:03:37;7.30;;;2.33;;
59145;SDS011;44928;53.074;6.646;2023-06-10T15:06:03;10.40;;;3.20;;
59145;SDS011;44928;53.074;6.646;2023-06-10T15:08:29;8.73;;;2.83;;
59145;SDS011;44928;53.074;6.646;2023-06-10T15:10:54;9.02;;;2.53;;
59145;SDS011;44928;53.074;6.646;2023-06-10T15:13:22;12.32;;;2.92;;
59145;SDS011;44928;53.074;6.646;2023-06-10T15:15:48;7.88;;;2.45;;
59145;SDS011;44928;53.074;6.646;2023-06-10T15:18:13;5.18;;;2.13;;